createdAt,value
2018-12-02T00:01:16.053Z,9.84
2018-12-02T00:03:44.775Z,9.83
2018-12-02T00:06:13.491Z,9.82
2018-12-02T00:08:42.175Z,9.85
2018-12-02T00:11:10.865Z,9.90
2018-12-02T00:13:39.562Z,9.96
2018-12-02T00:16:08.256Z,9.91
2018-12-02T00:18:36.946Z,9.96
2018-12-02T00:21:06.190Z,9.97
2018-12-02T00:23:34.891Z,9.97
2018-12-02T00:26:03.595Z,9.99
2018-12-02T00:28:32.558Z,10.02
2018-12-02T00:31:01.266Z,10.05
2018-12-02T00:33:29.978Z,10.01
2018-12-02T00:35:58.686Z,10.05
2018-12-02T00:38:27.451Z,10.06
2018-12-02T00:40:56.300Z,10.04
2018-12-02T00:43:25.050Z,10.06
2018-12-02T00:45:53.963Z,10.09
2018-12-02T00:48:29.275Z,10.10
2018-12-02T00:50:57.978Z,10.09
2018-12-02T00:53:26.788Z,10.13
2018-12-02T00:55:58.322Z,10.13
2018-12-02T00:58:27.018Z,10.14
2018-12-02T01:00:55.714Z,10.15
2018-12-02T01:03:24.442Z,10.16
2018-12-02T01:05:53.133Z,10.14
2018-12-02T01:08:21.834Z,10.15
2018-12-02T01:10:50.559Z,10.11
2018-12-02T01:13:19.497Z,10.15
2018-12-02T01:15:48.202Z,10.15
2018-12-02T01:18:17.163Z,10.22
2018-12-02T01:20:46.022Z,10.15
2018-12-02T01:23:14.736Z,10.16
2018-12-02T01:25:43.429Z,10.21
2018-12-02T01:28:12.162Z,10.25
2018-12-02T01:30:40.855Z,10.26
2018-12-02T01:33:09.557Z,10.28
2018-12-02T01:35:38.241Z,10.25
2018-12-02T01:38:06.958Z,10.27
2018-12-02T01:40:35.660Z,10.30
2018-12-02T01:43:04.953Z,10.33
2018-12-02T01:45:33.678Z,10.34
2018-12-02T01:48:08.844Z,10.36
2018-12-02T01:50:37.706Z,10.35
2018-12-02T01:53:06.574Z,10.36
2018-12-02T01:55:35.434Z,10.40
2018-12-02T01:58:05.110Z,10.39
2018-12-02T02:00:33.798Z,10.40
2018-12-02T02:03:02.505Z,10.39
2018-12-02T02:05:31.402Z,10.39
2018-12-02T02:08:07.441Z,10.36
2018-12-02T02:10:36.285Z,10.36
2018-12-02T02:13:05.377Z,10.32
2018-12-02T02:15:34.139Z,10.35
2018-12-02T02:18:02.970Z,10.35
2018-12-02T02:20:31.674Z,10.33
2018-12-02T02:23:00.374Z,10.35
2018-12-02T02:25:29.092Z,10.36
2018-12-02T02:27:58.683Z,10.32
2018-12-02T02:30:28.571Z,10.32
2018-12-02T02:32:57.336Z,10.33
2018-12-02T02:35:26.035Z,10.34
2018-12-02T02:37:55.843Z,10.36
2018-12-02T02:40:25.594Z,10.40
2018-12-02T02:42:54.319Z,10.42
2018-12-02T02:45:23.015Z,10.41
2018-12-02T02:47:51.739Z,10.44
2018-12-02T02:50:21.258Z,10.45
2018-12-02T02:52:54.398Z,10.42
2018-12-02T02:55:23.108Z,10.41
2018-12-02T02:57:51.810Z,10.41
2018-12-02T03:00:21.250Z,10.34
2018-12-02T03:02:49.947Z,10.35
2018-12-02T03:05:18.830Z,10.38
2018-12-02T03:07:47.534Z,10.39
2018-12-02T03:10:17.029Z,10.37
2018-12-02T03:12:49.501Z,10.38
2018-12-02T03:15:18.927Z,10.39
2018-12-02T03:17:47.677Z,10.41
2018-12-02T03:20:17.312Z,10.40
2018-12-02T03:22:51.359Z,10.41
2018-12-02T03:25:20.979Z,10.40
2018-12-02T03:27:49.719Z,10.37
2018-12-02T03:30:20.183Z,10.34
2018-12-02T03:32:48.933Z,10.34
2018-12-02T03:35:18.627Z,10.34
2018-12-02T03:37:47.575Z,10.34
2018-12-02T03:40:21.365Z,10.37
2018-12-02T03:42:50.830Z,10.36
2018-12-02T03:45:21.671Z,10.42
2018-12-02T03:47:50.375Z,10.41
2018-12-02T03:50:20.001Z,10.40
2018-12-02T03:52:48.691Z,10.40
2018-12-02T03:55:17.407Z,10.40
2018-12-02T03:57:46.118Z,10.43
2018-12-02T04:00:20.463Z,10.46
2018-12-02T04:02:49.831Z,10.42
2018-12-02T04:05:20.876Z,10.46
2018-12-02T04:07:50.178Z,10.48
2018-12-02T04:10:19.304Z,10.46
2018-12-02T04:12:48.987Z,10.48
2018-12-02T04:15:19.623Z,10.50
2018-12-02T04:17:48.537Z,10.56
2018-12-02T04:20:18.045Z,10.54
2018-12-02T04:22:47.785Z,10.55
2018-12-02T04:25:17.541Z,10.57
2018-12-02T04:27:46.248Z,10.58
2018-12-02T04:30:15.814Z,10.55
2018-12-02T04:32:44.812Z,10.55
2018-12-02T04:35:16.728Z,10.55
2018-12-02T04:37:45.429Z,10.55
2018-12-02T04:40:14.579Z,10.58
2018-12-02T04:42:43.303Z,10.58
2018-12-02T04:45:17.799Z,10.53
2018-12-02T04:47:46.602Z,10.56
2018-12-02T04:50:18.192Z,10.58
2018-12-02T04:52:47.009Z,10.63
2018-12-02T04:55:15.767Z,10.62
2018-12-02T04:57:44.470Z,10.65
2018-12-02T05:00:18.855Z,10.67
2018-12-02T05:02:48.599Z,10.67
2018-12-02T05:05:19.322Z,10.68
2018-12-02T05:07:48.051Z,10.65
2018-12-02T05:10:18.738Z,10.69
2018-12-02T05:12:47.742Z,10.66
2018-12-02T05:15:17.342Z,10.68
2018-12-02T05:17:46.066Z,10.70
2018-12-02T05:20:18.416Z,10.73
2018-12-02T05:22:47.129Z,10.74
2018-12-02T05:25:17.821Z,10.75
2018-12-02T05:27:45.217Z,10.77
2018-12-02T05:30:15.638Z,10.77
2018-12-02T05:32:44.974Z,10.78
2018-12-02T05:35:14.195Z,10.72
2018-12-02T05:37:42.896Z,10.76
2018-12-02T05:40:16.443Z,10.80
2018-12-02T05:42:45.181Z,10.82
2018-12-02T05:45:15.686Z,10.82
2018-12-02T05:47:44.573Z,10.81
2018-12-02T05:50:17.196Z,10.79
2018-12-02T05:52:47.216Z,10.79
2018-12-02T05:55:17.655Z,10.77
2018-12-02T05:57:46.354Z,10.78
2018-12-02T06:00:18.163Z,10.73
2018-12-02T06:02:46.949Z,10.78
2018-12-02T06:05:15.955Z,10.83
2018-12-02T06:07:44.720Z,10.82
2018-12-02T06:10:33.094Z,10.86
2018-12-02T06:13:01.818Z,10.86
2018-12-02T06:15:30.550Z,10.88
2018-12-02T06:17:59.249Z,10.84
2018-12-02T06:20:27.946Z,10.81
2018-12-02T06:22:57.546Z,10.83
2018-12-02T06:25:26.278Z,10.83
2018-12-02T06:27:55.126Z,10.87
2018-12-02T06:30:26.747Z,10.89
2018-12-02T06:32:59.620Z,10.88
2018-12-02T06:35:28.554Z,10.86
2018-12-02T06:37:58.238Z,10.88
2018-12-02T06:40:29.202Z,10.88
2018-12-02T06:42:57.920Z,10.87
2018-12-02T06:45:26.659Z,10.89
2018-12-02T06:47:55.354Z,10.94
2018-12-02T06:50:24.970Z,10.95
2018-12-02T06:52:54.428Z,10.93
2018-12-02T06:58:46.998Z,10.89
2018-12-02T07:01:33.762Z,10.87
2018-12-02T07:04:37.000Z,10.90
2018-12-02T07:07:06.403Z,10.97
2018-12-02T07:09:35.106Z,11.02
2018-12-02T07:12:04.889Z,11.01
2018-12-02T07:14:55.005Z,10.97
2018-12-02T07:20:32.109Z,10.97
2018-12-02T07:23:03.256Z,10.97
2018-12-02T07:25:36.879Z,10.97
2018-12-02T07:28:06.327Z,10.99
2018-12-02T07:30:35.030Z,11.02
2018-12-02T07:33:05.035Z,11.00
2018-12-02T07:35:49.234Z,10.95
2018-12-02T07:38:45.613Z,10.93
2018-12-02T07:41:16.387Z,10.97
2018-12-02T07:43:45.094Z,10.98
2018-12-02T07:46:13.811Z,10.97
2018-12-02T07:48:42.546Z,11.02
2018-12-02T07:51:11.473Z,11.04
2018-12-02T07:53:40.181Z,11.06
2018-12-02T07:56:08.886Z,11.10
2018-12-02T07:58:37.596Z,11.12
2018-12-02T08:01:06.659Z,11.10
2018-12-02T08:03:35.379Z,11.09
2018-12-02T08:06:04.338Z,11.11
2018-12-02T08:08:33.054Z,11.10
2018-12-02T08:11:01.771Z,11.16
2018-12-02T08:13:30.469Z,11.19
2018-12-02T08:15:59.234Z,11.20
2018-12-02T08:18:27.946Z,11.19
2018-12-02T08:20:56.750Z,11.22
2018-12-02T08:23:25.470Z,11.23
2018-12-02T08:25:54.189Z,11.26
2018-12-02T08:28:37.642Z,11.26
2018-12-02T08:31:06.371Z,11.26
2018-12-02T08:33:35.078Z,11.29
2018-12-02T08:36:04.973Z,11.31
2018-12-02T08:38:33.982Z,11.28
2018-12-02T08:41:02.725Z,11.28
2018-12-02T08:43:31.437Z,11.32
2018-12-02T08:46:00.139Z,11.36
2018-12-02T08:48:28.846Z,11.40
2018-12-02T08:50:57.857Z,11.40
2018-12-02T08:53:26.559Z,11.40
2018-12-02T08:55:55.270Z,11.41
2018-12-02T08:58:23.997Z,11.42
2018-12-02T09:00:52.702Z,11.45
2018-12-02T09:03:21.431Z,11.45
2018-12-02T09:05:50.277Z,11.44
2018-12-02T09:08:19.123Z,11.46
2018-12-02T09:10:47.827Z,11.50
2018-12-02T09:13:16.774Z,11.51
2018-12-02T09:15:45.493Z,11.46
2018-12-02T09:18:14.241Z,11.54
2018-12-02T09:20:42.938Z,11.56
2018-12-02T09:23:13.115Z,11.60
2018-12-02T09:25:41.019Z,11.58
2018-12-02T09:28:09.890Z,11.60
2018-12-02T09:30:38.883Z,11.64
2018-12-02T09:33:07.588Z,11.68
2018-12-02T09:35:36.293Z,11.70
2018-12-02T09:38:05.966Z,11.77
2018-12-02T09:40:34.672Z,11.82
2018-12-02T09:43:03.403Z,11.86
2018-12-02T09:45:32.079Z,11.89
2018-12-02T09:48:01.102Z,11.92
2018-12-02T09:50:29.901Z,11.94
2018-12-02T09:52:58.598Z,11.98
2018-12-02T09:55:37.027Z,12.00
2018-12-02T09:58:07.207Z,12.05
2018-12-02T10:00:35.895Z,12.09
2018-12-02T10:03:05.843Z,12.12
2018-12-02T10:05:34.830Z,12.15
2018-12-02T10:08:03.546Z,12.21
2018-12-02T10:10:32.248Z,12.23
2018-12-02T10:13:04.442Z,12.26
2018-12-02T10:15:33.150Z,12.31
2018-12-02T10:18:01.859Z,12.34
2018-12-02T10:20:30.577Z,12.36
2018-12-02T10:22:59.491Z,12.40
2018-12-02T10:25:28.192Z,12.46
2018-12-02T10:27:57.169Z,12.49
2018-12-02T10:30:26.143Z,12.54
2018-12-02T10:35:52.722Z,12.60
2018-12-02T10:38:21.437Z,12.63
2018-12-02T10:40:50.130Z,12.69
2018-12-02T10:43:18.838Z,12.74
2018-12-02T10:45:47.547Z,12.79
2018-12-02T10:48:17.043Z,12.88
2018-12-02T10:50:45.775Z,12.91
2018-12-02T10:53:19.895Z,12.97
2018-12-02T10:55:57.994Z,13.02
2018-12-02T10:58:29.715Z,13.07
2018-12-02T11:01:04.788Z,13.11
2018-12-02T11:03:33.630Z,13.16
2018-12-02T11:06:02.354Z,13.19
2018-12-02T11:08:31.055Z,13.22
2018-12-02T11:10:59.813Z,13.28
2018-12-02T11:13:28.524Z,13.28
2018-12-02T11:15:57.230Z,13.28
2018-12-02T11:18:25.950Z,13.33
2018-12-02T11:20:54.692Z,13.40
2018-12-02T11:25:58.410Z,13.43
2018-12-02T11:28:27.108Z,13.45
2018-12-02T11:30:55.878Z,13.48
2018-12-02T11:33:24.577Z,13.52
2018-12-02T11:35:53.290Z,13.54
2018-12-02T11:38:21.974Z,13.55
2018-12-02T11:40:50.681Z,13.64
2018-12-02T11:43:19.395Z,13.70
2018-12-02T11:45:48.077Z,13.75
2018-12-02T11:48:16.771Z,13.77
2018-12-02T11:50:45.470Z,13.78
2018-12-02T11:53:14.518Z,13.79
2018-12-02T11:55:43.216Z,13.79
2018-12-02T11:58:12.206Z,13.82
2018-12-02T12:00:41.506Z,13.86
2018-12-02T12:03:10.252Z,13.87
2018-12-02T12:05:39.277Z,13.88
2018-12-02T12:08:10.332Z,13.91
2018-12-02T12:10:39.301Z,13.92
2018-12-02T12:13:08.002Z,13.92
2018-12-02T12:15:37.369Z,13.96
2018-12-02T12:18:08.059Z,13.97
2018-12-02T12:20:38.457Z,13.99
2018-12-02T12:23:08.506Z,14.04
2018-12-02T12:25:37.262Z,14.06
2018-12-02T12:28:07.182Z,14.08
2018-12-02T12:30:36.513Z,14.08
2018-12-02T12:33:06.674Z,14.10
2018-12-02T12:35:36.007Z,14.16
2018-12-02T12:38:18.158Z,14.17
2018-12-02T12:40:48.594Z,14.19
2018-12-02T12:43:27.570Z,14.18
2018-12-02T12:45:56.731Z,14.19
2018-12-02T12:48:25.438Z,14.20
2018-12-02T12:50:55.153Z,14.20
2018-12-02T12:53:23.856Z,14.22
2018-12-02T12:55:53.734Z,14.25
2018-12-02T12:58:22.747Z,14.26
2018-12-02T13:00:51.718Z,14.26
2018-12-02T13:03:21.011Z,14.33
2018-12-02T13:05:50.048Z,14.34
2018-12-02T13:08:19.010Z,14.35
2018-12-02T13:10:47.710Z,14.40
2018-12-02T13:13:16.430Z,14.41
2018-12-02T13:15:46.089Z,14.45
2018-12-02T13:18:14.975Z,14.46
2018-12-02T13:20:49.519Z,14.49
2018-12-02T13:23:18.481Z,14.53
2018-12-02T13:25:47.478Z,14.54
2018-12-02T13:28:16.467Z,14.56
2018-12-02T13:30:45.519Z,14.59
2018-12-02T13:33:14.446Z,14.57
2018-12-02T13:35:43.449Z,14.58
2018-12-02T13:38:12.494Z,14.56
2018-12-02T13:40:42.090Z,14.56
2018-12-02T13:43:14.307Z,14.56
2018-12-02T13:45:43.103Z,14.57
2018-12-02T13:48:11.823Z,14.57
2018-12-02T13:50:41.727Z,14.57
2018-12-02T13:53:10.726Z,14.51
2018-12-02T13:55:39.447Z,14.48
2018-12-02T13:58:08.198Z,14.47
2018-12-02T14:00:38.429Z,14.45
2018-12-02T14:03:08.401Z,14.42
2018-12-02T14:05:41.913Z,14.41
2018-12-02T14:08:13.908Z,14.40
2018-12-02T14:10:42.906Z,14.36
2018-12-02T14:13:16.000Z,14.34
2018-12-02T14:15:51.722Z,14.31
2018-12-02T14:18:27.396Z,14.31
2018-12-02T14:20:56.126Z,14.30
2018-12-02T14:23:25.074Z,14.28
2018-12-02T14:25:55.359Z,14.23
2018-12-02T14:28:29.249Z,14.21
2018-12-02T14:30:57.941Z,14.20
2018-12-02T14:33:26.654Z,14.20
2018-12-02T14:35:55.359Z,14.20
2018-12-02T14:38:24.041Z,14.21
2018-12-02T14:40:52.823Z,14.19
2018-12-02T14:43:21.518Z,14.18
2018-12-02T14:45:50.301Z,14.18
2018-12-02T14:48:18.970Z,14.14
2018-12-02T14:50:47.945Z,14.14
2018-12-02T14:53:16.648Z,14.15
2018-12-02T14:55:45.388Z,14.17
2018-12-02T14:58:14.286Z,14.17
2018-12-02T15:00:42.994Z,14.16
2018-12-02T15:03:11.725Z,14.16
2018-12-02T15:05:40.660Z,14.18
2018-12-02T15:08:09.379Z,14.16
2018-12-02T15:10:38.084Z,14.13
2018-12-02T15:13:06.782Z,14.15
2018-12-02T15:15:35.705Z,14.09
2018-12-02T15:18:05.014Z,14.07
2018-12-02T15:20:34.002Z,14.05
2018-12-02T15:23:03.391Z,14.03
2018-12-02T15:25:32.090Z,14.04
2018-12-02T15:28:00.812Z,14.01
2018-12-02T15:30:29.762Z,14.02
2018-12-02T15:32:58.471Z,14.00
2018-12-02T15:35:27.381Z,14.02
2018-12-02T15:37:56.061Z,14.02
2018-12-02T15:40:24.770Z,14.00
2018-12-02T15:42:53.980Z,13.98
2018-12-02T15:45:23.101Z,13.97
2018-12-02T15:47:51.806Z,13.93
2018-12-02T15:50:23.161Z,13.91
2018-12-02T15:52:52.915Z,13.91
2018-12-02T15:55:31.734Z,13.92
2018-12-02T15:58:03.150Z,13.94
2018-12-02T16:00:34.954Z,13.94
2018-12-02T16:03:03.788Z,13.94
2018-12-02T16:05:32.463Z,13.93
2018-12-02T16:08:02.451Z,13.94
2018-12-02T16:10:31.155Z,13.95
2018-12-02T16:15:41.023Z,13.91
2018-12-02T16:18:11.823Z,13.90
2018-12-02T16:20:49.618Z,13.87
2018-12-02T16:23:19.799Z,13.85
2018-12-02T16:25:48.518Z,13.86
2018-12-02T16:28:17.222Z,13.85
2018-12-02T16:30:46.115Z,13.83
2018-12-02T16:33:14.804Z,13.83
2018-12-02T16:35:49.829Z,13.84
2018-12-02T16:38:18.540Z,13.84
2018-12-02T16:40:47.258Z,13.84
2018-12-02T16:43:16.805Z,13.85
2018-12-02T16:45:44.914Z,13.85
2018-12-02T16:48:13.618Z,13.84
2018-12-02T16:50:44.870Z,13.83
2018-12-02T16:53:16.175Z,13.83
2018-12-02T16:56:02.935Z,13.81
2018-12-02T16:58:41.315Z,13.81
2018-12-02T17:01:15.724Z,13.79
2018-12-02T17:06:43.819Z,13.78
2018-12-02T17:09:13.074Z,13.80
2018-12-02T17:11:42.715Z,13.80
2018-12-02T17:17:06.157Z,13.77
2018-12-02T17:19:34.868Z,13.77
2018-12-02T17:22:03.867Z,13.77
2018-12-02T17:24:32.549Z,13.76
2018-12-02T17:27:01.251Z,13.80
2018-12-02T17:29:30.250Z,13.81
2018-12-02T17:32:01.514Z,13.80
2018-12-02T17:34:30.219Z,13.79
2018-12-02T17:36:59.057Z,13.78
2018-12-02T17:39:29.589Z,13.79
2018-12-02T17:42:13.326Z,13.81
2018-12-02T17:44:42.039Z,13.81
2018-12-02T17:47:11.003Z,13.82
2018-12-02T17:49:39.699Z,13.82
2018-12-02T17:52:08.468Z,13.82
2018-12-02T17:54:37.373Z,13.81
2018-12-02T17:57:06.099Z,13.79
2018-12-02T17:59:39.030Z,13.76
2018-12-02T18:02:07.827Z,13.76
2018-12-02T18:04:36.561Z,13.74
2018-12-02T18:07:05.822Z,13.73
2018-12-02T18:09:45.219Z,13.72
2018-12-02T18:12:13.954Z,13.73
2018-12-02T18:14:42.656Z,13.69
2018-12-02T18:17:14.895Z,13.69
2018-12-02T18:19:43.610Z,13.70
2018-12-02T18:22:12.310Z,13.68
2018-12-02T18:24:41.015Z,13.64
2018-12-02T18:27:09.718Z,13.63
2018-12-02T18:29:38.627Z,13.62
2018-12-02T18:32:07.622Z,13.62
2018-12-02T18:34:36.438Z,13.63
2018-12-02T18:37:07.254Z,13.64
2018-12-02T18:39:35.951Z,13.65
2018-12-02T18:42:06.806Z,13.69
2018-12-02T18:44:35.494Z,13.70
2018-12-02T18:47:04.831Z,13.71
2018-12-02T18:49:33.547Z,13.73
2018-12-02T18:52:02.257Z,13.75
2018-12-02T18:54:31.011Z,13.77
2018-12-02T18:56:59.998Z,13.78
2018-12-02T18:59:28.700Z,13.81
2018-12-02T19:01:57.407Z,13.80
2018-12-02T19:04:26.185Z,13.81
2018-12-02T19:06:58.597Z,13.83
2018-12-02T19:09:23.738Z,13.81
2018-12-02T19:11:52.438Z,13.83
2018-12-02T19:14:21.121Z,13.81
2018-12-02T19:16:49.839Z,13.82
2018-12-02T19:19:18.530Z,13.84
2018-12-02T19:21:47.239Z,13.86
2018-12-02T19:24:15.950Z,13.85
2018-12-02T19:26:44.654Z,13.87
2018-12-02T19:29:13.362Z,13.86
2018-12-02T19:31:42.069Z,13.88
2018-12-02T19:37:05.249Z,13.83
2018-12-02T19:39:33.936Z,13.80
2018-12-02T19:42:02.649Z,13.79
2018-12-02T19:44:31.450Z,13.81
2018-12-02T19:47:00.429Z,13.80
2018-12-02T19:49:29.411Z,13.80
2018-12-02T19:51:58.419Z,13.81
2018-12-02T19:54:27.447Z,13.81
2018-12-02T19:56:56.255Z,13.81
2018-12-02T19:59:24.941Z,13.84
2018-12-02T20:01:53.647Z,13.85
2018-12-02T20:04:22.342Z,13.87
2018-12-02T20:06:51.063Z,13.87
2018-12-02T20:09:19.751Z,13.89
2018-12-02T20:11:48.798Z,13.91
2018-12-02T20:14:17.750Z,13.90
2018-12-02T20:16:47.410Z,13.92
2018-12-02T20:19:21.494Z,13.92
2018-12-02T20:21:50.204Z,13.94
2018-12-02T20:24:24.228Z,13.96
2018-12-02T20:26:54.443Z,13.96
2018-12-02T20:29:23.168Z,13.94
2018-12-02T20:31:52.130Z,13.94
2018-12-02T20:34:37.162Z,13.97
2018-12-02T20:37:05.954Z,13.97
2018-12-02T20:39:36.618Z,13.99
2018-12-02T20:42:05.722Z,14.02
2018-12-02T20:44:36.435Z,14.03
2018-12-02T20:47:05.819Z,14.04
2018-12-02T20:49:34.727Z,14.05
2018-12-02T20:52:03.413Z,14.06
2018-12-02T20:54:32.407Z,14.10
2018-12-02T20:57:01.104Z,14.10
2018-12-02T20:59:29.812Z,14.10
2018-12-02T21:02:01.234Z,14.11
2018-12-02T21:04:29.938Z,14.12
2018-12-02T21:06:58.651Z,14.12
2018-12-02T21:09:27.374Z,14.13
2018-12-02T21:11:56.081Z,14.12
2018-12-02T21:14:24.958Z,14.14
2018-12-02T21:16:53.657Z,14.16
2018-12-02T21:19:22.375Z,14.16
2018-12-02T21:21:52.165Z,14.16
2018-12-02T21:24:21.229Z,14.15
2018-12-02T21:26:49.965Z,14.15
2018-12-02T21:29:18.668Z,14.16
2018-12-02T21:31:47.371Z,14.17
2018-12-02T21:34:16.066Z,14.17
2018-12-02T21:36:44.771Z,14.14
2018-12-02T21:39:13.473Z,14.14
2018-12-02T21:41:42.170Z,14.13
2018-12-02T21:44:11.063Z,14.14
2018-12-02T21:46:40.025Z,14.12
2018-12-02T21:49:08.735Z,14.11
2018-12-02T21:51:37.690Z,14.11
2018-12-02T21:54:06.654Z,14.10
2018-12-02T21:56:36.290Z,14.10
2018-12-02T21:59:05.738Z,14.10
2018-12-02T22:01:34.599Z,14.11
2018-12-02T22:04:03.298Z,14.13
2018-12-02T22:06:31.996Z,14.13
2018-12-02T22:09:00.702Z,14.12
2018-12-02T22:11:29.422Z,14.14
2018-12-02T22:13:58.151Z,14.12
2018-12-02T22:16:27.006Z,14.13
2018-12-02T22:18:55.723Z,14.14
2018-12-02T22:21:24.419Z,14.14
2018-12-02T22:23:53.121Z,14.14
2018-12-02T22:26:21.831Z,14.14
2018-12-02T22:28:50.751Z,14.14
2018-12-02T22:31:19.763Z,14.14
2018-12-02T22:33:48.459Z,14.10
2018-12-02T22:36:17.167Z,14.09
2018-12-02T22:38:45.874Z,14.06
2018-12-02T22:41:14.771Z,14.05
2018-12-02T22:43:43.474Z,14.06
2018-12-02T22:46:12.178Z,14.05
2018-12-02T22:48:40.893Z,14.04
2018-12-02T22:51:09.602Z,14.07
2018-12-02T22:53:38.301Z,14.03
2018-12-02T22:56:07.000Z,14.03
2018-12-02T22:58:35.723Z,13.98
2018-12-02T23:01:10.550Z,13.98
2018-12-02T23:03:39.239Z,13.96
2018-12-02T23:06:07.956Z,13.98
2018-12-02T23:08:36.662Z,13.95
2018-12-02T23:11:05.650Z,13.94
2018-12-02T23:13:34.362Z,13.91
2018-12-02T23:16:03.074Z,13.92
2018-12-02T23:18:31.769Z,13.88
2018-12-02T23:21:00.471Z,13.90
2018-12-02T23:23:29.179Z,13.90
2018-12-02T23:25:57.900Z,13.90
2018-12-02T23:28:26.597Z,13.89
2018-12-02T23:30:55.287Z,13.87
2018-12-02T23:33:23.989Z,13.90
2018-12-02T23:35:52.707Z,13.89
2018-12-02T23:38:21.999Z,13.89
2018-12-02T23:40:50.703Z,13.90
2018-12-02T23:43:19.425Z,13.90
2018-12-02T23:45:48.120Z,13.93
2018-12-02T23:48:16.814Z,13.96
2018-12-02T23:50:45.551Z,13.97
2018-12-02T23:53:14.263Z,14.00
2018-12-02T23:55:42.989Z,14.00
2018-12-02T23:58:11.716Z,13.99
